Airfield :
LOGIN :

Register | Disclaimer

   EN    FR    IT 

 










Legend :    VFR   Marginal VFR   IFR   Intensive IFR   Very Intensive IFR
Visi :
Ceiling :
>= 8 km
>= 3000ft
5 to 8 km
1000 to 3000 ft
1500m to 5 km
500 to 1000 ft
800 to 1500m
200 to 500 ft
< 800m
< 200 ft
Symbols :   Thunderstorms  Fog  Heavy snow  Heavy precipitations  Wind > 20 kt
SIGMETs :     Misc.  Thunderstorms  Icing  Turbulence  Mountain Waves  Volcanic Ashes







- Airport Elevation : 287 ft
- Download approach charts


LFRL - Lanveoc Poulmic

CURRENT METAR :
  • 231930Z AUTO 04005KT CAVOK 07/04 Q1012 TEMPO 03015G27KT 2000 TSRA BKN011CB

EXPIRED METARs :
  • 231900Z AUTO 04003KT 9999 FEW013 SCT080 BKN140 07/05 Q1011 TEMPO 03015G27KT 2000 TSRA BKN011CB
  • 231830Z AUTO 03004KT 9999 ///CB 07/05 Q1011 TEMPO 03015G27KT 2000 TSRA BKN011CB
  • 231800Z AUTO 02003KT CAVOK 07/05 Q1011 TEMPO 03015G27KT 2000 TSRA BKN011CB
  • 231730Z AUTO 03003KT 360V070 9999 FEW031/// BKN058/// OVC090/// ///CB 08/05 Q1010 TEMPO 03015G27KT 2000 TSRA BKN011CB
  • 231700Z AUTO VRB02KT 9999 FEW015/// BKN028/// OVC033/// ///TCU 07/05 Q1010 TEMPO 03015G27KT 2000 TSRA BKN011CB

TAF TAF LFRL
Valid from the 23 at 15:00 until the 24 at 00:00 UTC


231400Z 2315/2324 35007KT 9999 BKN020 OVC025
TEMPO 2315/2323 03015G27KT 4000 SHRA BKN015TCU
PROB40
TEMPO 2316/2322 2000 TSRA BKN011CB
No reported NOTAMs for that airfield.



MET'MAP, your aeronautical weather chart ! - Copyright ORBIFLY December 2007 - Disclaimer

ORBIFLY MET'MAP TEAM :

Programming & Development : Alexandra Zaïnal
Concept & Development : Baudouin d'Aumeries
Co-Development & Prog : Marc-Olivier Méhu
Technical & hardware support : Manuel Goepfert

Contact : metmap@orbifly.com




SOURCES & CREDITS :

   NOAA